createdAt,value
2017-10-20T00:02:07.510Z,9.93
2017-10-20T00:04:36.059Z,9.80
2017-10-20T00:07:04.400Z,9.80
2017-10-20T00:09:33.507Z,9.69
2017-10-20T00:12:01.833Z,9.66
2017-10-20T00:14:30.205Z,9.64
2017-10-20T00:17:00.706Z,9.63
2017-10-20T00:19:30.423Z,9.70
2017-10-20T00:22:04.508Z,9.67
2017-10-20T00:24:33.319Z,9.69
2017-10-20T00:27:02.502Z,9.79
2017-10-20T00:29:30.893Z,9.79
2017-10-20T00:32:00.208Z,9.91
2017-10-20T00:34:29.501Z,10.01
2017-10-20T00:36:58.838Z,10.01
2017-10-20T00:39:27.188Z,10.00
2017-10-20T00:41:57.061Z,10.02
2017-10-20T00:44:25.485Z,9.96
2017-10-20T00:46:54.782Z,10.02
2017-10-20T00:49:24.104Z,10.07
2017-10-20T00:51:54.627Z,10.17
2017-10-20T00:54:23.939Z,10.13
2017-10-20T00:56:52.300Z,10.05
2017-10-20T00:59:21.618Z,10.04
2017-10-20T01:01:52.117Z,10.01
2017-10-20T01:04:24.226Z,10.13
2017-10-20T01:06:52.592Z,10.21
2017-10-20T01:09:23.124Z,10.13
2017-10-20T01:11:53.640Z,10.16
2017-10-20T01:14:22.930Z,10.14
2017-10-20T01:16:51.353Z,10.23
2017-10-20T01:19:20.314Z,10.27
2017-10-20T01:21:49.875Z,10.32
2017-10-20T01:24:18.296Z,10.27
2017-10-20T01:26:46.681Z,10.34
2017-10-20T01:29:19.678Z,10.37
2017-10-20T01:31:48.957Z,10.34
2017-10-20T01:34:17.422Z,10.31
2017-10-20T01:36:45.730Z,10.28
2017-10-20T01:39:15.358Z,10.29
2017-10-20T01:41:43.709Z,10.36
2017-10-20T01:44:12.093Z,10.22
2017-10-20T01:46:41.420Z,10.17
2017-10-20T01:49:10.703Z,10.26
2017-10-20T01:51:40.037Z,10.28
2017-10-20T01:54:10.515Z,10.26
2017-10-20T01:56:42.023Z,10.41
2017-10-20T01:59:12.524Z,10.35
2017-10-20T02:01:41.864Z,10.42
2017-10-20T02:04:11.128Z,10.42
2017-10-20T02:06:40.950Z,10.44
2017-10-20T02:09:09.784Z,10.50
2017-10-20T02:11:38.110Z,10.52
2017-10-20T02:14:10.728Z,10.38
2017-10-20T02:16:39.168Z,10.47
2017-10-20T02:19:08.453Z,10.48
2017-10-20T02:21:39.040Z,10.48
2017-10-20T02:24:09.632Z,10.49
2017-10-20T02:26:42.237Z,10.36
2017-10-20T02:29:11.501Z,10.36
2017-10-20T02:31:40.833Z,10.43
2017-10-20T02:34:11.357Z,10.49
2017-10-20T02:36:44.035Z,10.43
2017-10-20T02:39:12.421Z,10.42
2017-10-20T02:41:42.943Z,10.40
2017-10-20T02:44:12.235Z,10.32
2017-10-20T02:46:41.518Z,10.42
2017-10-20T02:49:09.997Z,10.42
2017-10-20T02:51:39.523Z,10.43
2017-10-20T02:54:08.876Z,10.47
2017-10-20T02:56:39.387Z,10.56
2017-10-20T02:59:09.913Z,10.56
2017-10-20T03:01:40.433Z,10.59
2017-10-20T03:04:11.345Z,10.61
2017-10-20T03:06:39.665Z,10.47
2017-10-20T03:09:08.875Z,10.46
2017-10-20T03:11:37.419Z,10.49
2017-10-20T03:14:06.603Z,10.56
2017-10-20T03:16:35.002Z,10.44
2017-10-20T03:19:04.284Z,10.48
2017-10-20T03:21:34.839Z,10.54
2017-10-20T03:24:04.124Z,10.58
2017-10-20T03:26:32.482Z,10.57
2017-10-20T03:29:01.500Z,10.59
2017-10-20T03:31:30.807Z,10.65
2017-10-20T03:34:00.133Z,10.59
2017-10-20T03:36:28.480Z,10.65
2017-10-20T03:38:56.876Z,10.70
2017-10-20T03:41:26.153Z,10.69
2017-10-20T03:43:55.492Z,10.73
2017-10-20T03:46:23.847Z,10.71
2017-10-20T03:48:53.140Z,10.76
2017-10-20T03:51:22.492Z,10.73
2017-10-20T03:53:50.819Z,10.75
2017-10-20T03:56:19.299Z,10.65
2017-10-20T03:58:48.830Z,10.60
2017-10-20T04:01:18.137Z,10.57
2017-10-20T04:03:47.446Z,10.62
2017-10-20T04:06:16.051Z,10.74
2017-10-20T04:08:44.478Z,10.78
2017-10-20T04:11:12.846Z,10.81
2017-10-20T04:13:41.327Z,10.86
2017-10-20T04:16:09.638Z,10.90
2017-10-20T04:18:40.167Z,10.86
2017-10-20T04:21:09.471Z,10.90
2017-10-20T04:23:37.839Z,10.92
2017-10-20T04:26:07.123Z,10.92
2017-10-20T04:28:35.541Z,10.90
2017-10-20T04:31:03.956Z,10.86
2017-10-20T04:33:32.271Z,10.93
2017-10-20T04:36:01.620Z,10.91
2017-10-20T04:38:32.181Z,10.94
2017-10-20T04:41:00.530Z,10.98
2017-10-20T04:43:32.234Z,11.00
2017-10-20T04:46:00.691Z,11.07
2017-10-20T04:48:29.116Z,11.11
2017-10-20T04:50:57.791Z,11.05
2017-10-20T04:53:26.141Z,11.03
2017-10-20T04:55:54.489Z,11.05
2017-10-20T04:58:27.211Z,10.99
2017-10-20T05:00:55.522Z,11.06
2017-10-20T05:03:24.636Z,11.11
2017-10-20T05:05:54.111Z,11.16
2017-10-20T05:08:22.475Z,11.17
2017-10-20T05:10:51.203Z,11.17
2017-10-20T05:13:20.325Z,11.16
2017-10-20T05:15:49.422Z,11.21
2017-10-20T05:18:18.574Z,11.16
2017-10-20T05:20:46.901Z,11.19
2017-10-20T05:23:15.255Z,11.14
2017-10-20T05:25:44.352Z,11.16
2017-10-20T05:28:13.539Z,11.09
2017-10-20T05:30:42.856Z,11.18
2017-10-20T05:33:12.157Z,11.21
2017-10-20T05:35:40.967Z,11.26
2017-10-20T05:38:09.311Z,11.20
2017-10-20T05:40:38.391Z,11.26
2017-10-20T05:43:06.735Z,11.29
2017-10-20T05:45:38.119Z,11.31
2017-10-20T05:48:08.715Z,11.27
2017-10-20T05:50:37.960Z,11.26
2017-10-20T05:53:08.557Z,11.21
2017-10-20T05:55:38.504Z,11.27
2017-10-20T05:58:08.739Z,11.32
2017-10-20T06:00:38.238Z,11.26
2017-10-20T06:03:07.517Z,11.30
2017-10-20T06:05:38.527Z,11.23
2017-10-20T06:08:09.787Z,11.32
2017-10-20T06:10:40.334Z,11.38
2017-10-20T06:13:09.917Z,11.45
2017-10-20T06:15:41.428Z,11.49
2017-10-20T06:18:11.996Z,11.51
2017-10-20T06:20:40.783Z,11.46
2017-10-20T06:23:09.229Z,11.50
2017-10-20T06:25:40.536Z,11.48
2017-10-20T06:28:10.585Z,11.51
2017-10-20T06:30:40.646Z,11.46
2017-10-20T06:33:10.561Z,11.54
2017-10-20T06:35:41.448Z,11.51
2017-10-20T06:38:11.425Z,11.52
2017-10-20T06:40:41.511Z,11.58
2017-10-20T06:43:09.980Z,11.64
2017-10-20T06:45:38.332Z,11.66
2017-10-20T06:48:06.919Z,11.63
2017-10-20T06:50:35.262Z,11.64
2017-10-20T06:53:03.574Z,11.68
2017-10-20T06:55:31.930Z,11.70
2017-10-20T06:58:00.253Z,11.73
2017-10-20T07:00:28.590Z,11.74
2017-10-20T07:02:56.921Z,11.79
2017-10-20T07:05:25.952Z,11.78
2017-10-20T07:07:54.283Z,11.84
2017-10-20T07:10:22.632Z,11.81
2017-10-20T07:12:50.985Z,11.82
2017-10-20T07:15:19.313Z,11.91
2017-10-20T07:17:47.664Z,11.97
2017-10-20T07:20:18.439Z,12.00
2017-10-20T07:22:46.857Z,12.03
2017-10-20T07:25:17.274Z,12.05
2017-10-20T07:27:46.758Z,12.08
2017-10-20T07:30:15.166Z,12.10
2017-10-20T07:32:44.472Z,12.14
2017-10-20T07:35:13.766Z,12.17
2017-10-20T07:37:43.532Z,12.20
2017-10-20T07:40:12.076Z,12.21
2017-10-20T07:42:41.369Z,12.27
2017-10-20T07:45:10.672Z,12.35
2017-10-20T07:47:39.955Z,12.42
2017-10-20T07:50:08.338Z,12.47
2017-10-20T07:52:37.662Z,12.55
2017-10-20T07:55:07.236Z,12.64
2017-10-20T07:57:35.632Z,12.78
2017-10-20T08:00:04.914Z,12.86
2017-10-20T08:02:33.481Z,12.94
2017-10-20T08:05:03.877Z,13.02
2017-10-20T08:07:32.246Z,13.05
2017-10-20T08:10:00.636Z,13.15
2017-10-20T08:12:29.213Z,13.22
2017-10-20T08:14:57.668Z,13.25
2017-10-20T08:17:27.283Z,13.30
2017-10-20T08:19:57.043Z,13.36
2017-10-20T08:22:25.572Z,13.45
2017-10-20T08:24:55.004Z,13.54
2017-10-20T08:27:24.503Z,13.61
2017-10-20T08:29:55.061Z,13.69
2017-10-20T08:32:25.570Z,13.79
2017-10-20T08:34:56.104Z,13.88
2017-10-20T08:37:24.474Z,13.96
2017-10-20T08:39:55.395Z,14.05
2017-10-20T08:42:24.597Z,14.22
2017-10-20T08:44:58.613Z,14.27
2017-10-20T08:47:28.126Z,14.30
2017-10-20T08:49:57.429Z,14.44
2017-10-20T08:52:26.742Z,14.46
2017-10-20T08:54:55.071Z,14.43
2017-10-20T08:57:23.404Z,14.47
2017-10-20T08:59:51.711Z,14.46
2017-10-20T09:02:20.049Z,14.46
2017-10-20T09:04:49.170Z,14.48
2017-10-20T09:07:17.538Z,14.46
2017-10-20T09:09:45.897Z,14.45
2017-10-20T09:12:14.996Z,14.49
2017-10-20T09:14:44.099Z,14.51
2017-10-20T09:17:13.498Z,14.51
2017-10-20T09:19:42.648Z,14.49
2017-10-20T09:22:11.028Z,14.47
2017-10-20T09:24:39.380Z,14.45
2017-10-20T09:27:09.871Z,14.42
2017-10-20T09:29:39.244Z,14.32
2017-10-20T09:32:07.569Z,14.24
2017-10-20T09:34:36.643Z,14.15
2017-10-20T09:37:04.992Z,14.07
2017-10-20T09:39:33.360Z,14.01
2017-10-20T09:42:01.718Z,13.95
2017-10-20T09:44:30.040Z,13.84
2017-10-20T09:46:58.405Z,13.79
2017-10-20T09:49:26.746Z,13.69
2017-10-20T09:51:55.843Z,13.65
2017-10-20T09:54:25.044Z,13.65
2017-10-20T09:56:54.470Z,13.60
2017-10-20T09:59:22.957Z,13.56
2017-10-20T10:01:51.498Z,13.62
2017-10-20T10:04:20.681Z,13.57
2017-10-20T10:06:49.901Z,13.61
2017-10-20T10:09:19.263Z,13.64
2017-10-20T10:11:47.582Z,13.53
2017-10-20T10:14:16.675Z,13.59
2017-10-20T10:16:45.807Z,13.62
2017-10-20T10:19:14.139Z,13.62
2017-10-20T10:21:42.481Z,13.59
2017-10-20T10:24:10.799Z,13.50
2017-10-20T10:26:39.132Z,13.45
2017-10-20T10:29:07.440Z,13.45
2017-10-20T10:31:35.791Z,13.38
2017-10-20T10:34:04.102Z,13.33
2017-10-20T10:36:32.407Z,13.30
2017-10-20T10:39:01.499Z,13.20
2017-10-20T10:41:30.594Z,13.16
2017-10-20T10:43:59.695Z,13.18
2017-10-20T10:46:28.817Z,13.15
2017-10-20T10:48:57.156Z,13.10
2017-10-20T10:51:26.262Z,13.12
2017-10-20T10:53:54.612Z,13.04
2017-10-20T10:56:22.963Z,13.05
2017-10-20T10:58:51.310Z,13.02
2017-10-20T11:01:20.429Z,12.97
2017-10-20T11:03:48.746Z,13.03
2017-10-20T11:06:34.503Z,13.06
2017-10-20T11:09:18.343Z,13.13
2017-10-20T11:12:04.134Z,13.16
2017-10-20T11:14:32.457Z,13.23
2017-10-20T11:17:00.793Z,13.32
2017-10-20T11:19:29.099Z,13.34
2017-10-20T11:21:57.428Z,13.46
2017-10-20T11:24:27.357Z,13.45
2017-10-20T11:26:55.952Z,13.46
2017-10-20T11:29:24.311Z,13.44
2017-10-20T11:31:53.391Z,13.50
2017-10-20T11:34:22.496Z,13.56
2017-10-20T11:36:51.619Z,13.56
2017-10-20T11:39:19.966Z,13.54
2017-10-20T11:41:49.060Z,13.56
2017-10-20T11:44:18.175Z,13.52
2017-10-20T11:46:46.572Z,13.50
2017-10-20T11:49:14.958Z,13.50
2017-10-20T11:51:43.341Z,13.49
2017-10-20T11:54:11.686Z,13.49
2017-10-20T11:56:40.815Z,13.61
2017-10-20T11:59:09.137Z,13.69
2017-10-20T12:01:37.486Z,13.76
2017-10-20T12:04:05.814Z,13.75
2017-10-20T12:06:34.945Z,13.76
2017-10-20T12:09:03.279Z,13.74
2017-10-20T12:11:31.877Z,13.75
2017-10-20T12:14:00.962Z,13.80
2017-10-20T12:16:29.292Z,13.87
2017-10-20T12:18:57.628Z,13.92
2017-10-20T12:21:26.750Z,13.98
2017-10-20T12:23:55.084Z,14.03
2017-10-20T12:26:23.420Z,14.06
2017-10-20T12:28:52.065Z,14.08
2017-10-20T12:31:20.393Z,14.11
2017-10-20T12:33:48.718Z,14.07
2017-10-20T12:36:17.062Z,14.04
2017-10-20T12:38:45.383Z,14.17
2017-10-20T12:41:14.503Z,14.31
2017-10-20T12:43:42.832Z,14.40
2017-10-20T12:46:11.434Z,14.47
2017-10-20T12:48:39.764Z,14.51
2017-10-20T12:51:08.075Z,14.54
2017-10-20T12:53:36.424Z,14.45
2017-10-20T12:56:04.748Z,14.40
2017-10-20T12:58:33.868Z,14.39
2017-10-20T13:01:03.615Z,14.43
2017-10-20T13:03:31.951Z,14.47
2017-10-20T13:06:01.040Z,14.51
2017-10-20T13:08:29.633Z,14.42
2017-10-20T13:10:58.726Z,14.35
2017-10-20T13:13:27.046Z,14.34
2017-10-20T13:15:55.391Z,14.34
2017-10-20T13:18:24.480Z,14.28
2017-10-20T13:20:53.615Z,14.33
2017-10-20T13:23:21.931Z,14.30
2017-10-20T13:25:50.269Z,14.27
2017-10-20T13:28:18.583Z,14.28
2017-10-20T13:30:46.905Z,14.29
2017-10-20T13:33:16.027Z,14.34
2017-10-20T13:35:44.352Z,14.36
2017-10-20T13:38:12.693Z,14.44
2017-10-20T13:40:41.002Z,14.45
2017-10-20T13:43:09.342Z,14.54
2017-10-20T13:45:37.680Z,14.61
2017-10-20T13:48:06.791Z,14.75
2017-10-20T13:50:35.868Z,14.82
2017-10-20T13:53:04.203Z,14.89
2017-10-20T13:55:32.538Z,14.92
2017-10-20T13:58:00.913Z,14.93
2017-10-20T14:00:29.245Z,14.88
2017-10-20T14:02:57.556Z,14.90
2017-10-20T14:05:25.898Z,14.92
2017-10-20T14:07:54.222Z,14.94
2017-10-20T14:10:22.821Z,15.00
2017-10-20T14:12:51.908Z,15.03
2017-10-20T14:15:20.240Z,15.08
2017-10-20T14:17:48.582Z,15.12
2017-10-20T14:20:17.681Z,15.17
2017-10-20T14:22:46.783Z,15.18
2017-10-20T14:25:15.877Z,15.25
2017-10-20T14:27:45.295Z,15.30
2017-10-20T14:30:13.676Z,15.38
2017-10-20T14:32:42.019Z,15.39
2017-10-20T14:35:10.484Z,15.45
2017-10-20T14:37:40.049Z,15.47
2017-10-20T14:40:08.410Z,15.53
2017-10-20T14:42:37.521Z,15.51
2017-10-20T14:45:05.853Z,15.58
2017-10-20T14:47:34.180Z,15.64
2017-10-20T14:50:02.879Z,15.83
2017-10-20T14:52:31.211Z,16.08
2017-10-20T14:55:00.301Z,16.22
2017-10-20T14:57:28.694Z,16.28
2017-10-20T14:59:57.799Z,16.40
2017-10-20T15:02:26.909Z,16.41
2017-10-20T15:04:55.228Z,16.31
2017-10-20T15:07:23.577Z,16.16
2017-10-20T15:09:51.905Z,15.98
2017-10-20T15:12:20.517Z,15.95
2017-10-20T15:14:49.627Z,16.22
2017-10-20T15:17:18.705Z,16.41
2017-10-20T15:19:47.816Z,16.38
2017-10-20T15:22:16.910Z,16.27
2017-10-20T15:24:46.039Z,16.13
2017-10-20T15:27:14.387Z,16.05
2017-10-20T15:29:43.774Z,15.85
2017-10-20T15:32:12.098Z,15.79
2017-10-20T15:34:40.432Z,15.60
2017-10-20T15:37:08.769Z,15.52
2017-10-20T15:39:37.140Z,15.47
2017-10-20T15:42:05.803Z,15.42
2017-10-20T15:44:34.132Z,15.29
2017-10-20T15:47:02.532Z,15.22
2017-10-20T15:49:30.934Z,15.16
2017-10-20T15:52:00.013Z,15.08
2017-10-20T15:54:28.379Z,15.06
2017-10-20T15:56:56.713Z,14.95
2017-10-20T15:59:25.358Z,14.78
2017-10-20T16:01:53.677Z,14.71
2017-10-20T16:04:22.030Z,14.72
2017-10-20T16:06:51.150Z,14.57
2017-10-20T16:12:40.143Z,14.47
2017-10-20T16:15:13.193Z,14.37
2017-10-20T16:20:40.137Z,14.22
2017-10-20T16:23:11.730Z,14.13
2017-10-20T16:25:41.636Z,14.07
2017-10-20T16:28:10.168Z,13.92
2017-10-20T16:30:38.761Z,13.80
2017-10-20T16:33:09.370Z,13.69
2017-10-20T16:35:39.871Z,13.57
2017-10-20T16:38:10.431Z,13.50
2017-10-20T16:40:38.804Z,13.44
2017-10-20T16:43:08.645Z,13.29
2017-10-20T16:45:37.182Z,13.15
2017-10-20T16:48:06.694Z,13.05
2017-10-20T16:50:35.323Z,13.01
2017-10-20T16:53:05.590Z,12.88
2017-10-20T16:55:34.909Z,12.76
2017-10-20T16:58:03.280Z,12.63
2017-10-20T17:00:33.805Z,12.58
2017-10-20T17:03:03.144Z,12.43
2017-10-20T17:05:32.407Z,12.27
2017-10-20T17:08:02.311Z,12.20
2017-10-20T17:10:31.633Z,12.25
2017-10-20T17:13:00.913Z,12.28
2017-10-20T17:15:34.860Z,12.22
2017-10-20T17:18:03.256Z,12.13
2017-10-20T17:20:31.632Z,12.12
2017-10-20T17:23:03.344Z,12.07
2017-10-20T17:25:32.700Z,12.16
2017-10-20T17:28:03.177Z,12.10
2017-10-20T17:30:32.527Z,12.04
2017-10-20T17:33:00.908Z,12.00
2017-10-20T17:35:31.834Z,11.84
2017-10-20T17:38:01.391Z,11.92
2017-10-20T17:40:29.728Z,11.69
2017-10-20T17:43:00.244Z,11.63
2017-10-20T17:45:30.786Z,11.67
2017-10-20T17:48:01.474Z,11.48
2017-10-20T17:50:30.026Z,11.30
2017-10-20T17:52:58.372Z,11.27
2017-10-20T17:55:26.719Z,11.32
2017-10-20T17:57:57.337Z,11.43
2017-10-20T18:00:25.692Z,11.45
2017-10-20T18:02:56.196Z,11.20
2017-10-20T18:05:26.765Z,10.96
2017-10-20T18:07:56.320Z,11.04
2017-10-20T18:10:24.706Z,11.14
2017-10-20T18:12:55.214Z,11.12
2017-10-20T18:15:24.568Z,10.87
2017-10-20T18:17:58.755Z,10.96
2017-10-20T18:20:29.289Z,10.83
2017-10-20T18:22:57.665Z,10.79
2017-10-20T18:25:28.205Z,10.71
2017-10-20T18:27:58.699Z,10.75
2017-10-20T18:30:29.289Z,10.70
2017-10-20T18:32:57.637Z,10.73
2017-10-20T19:17:38.024Z,9.79
2017-10-20T19:20:08.533Z,9.85
2017-10-20T19:22:39.067Z,9.89
2017-10-20T19:25:07.490Z,9.74
2017-10-20T19:27:37.975Z,9.72
2017-10-20T19:30:08.506Z,9.66
2017-10-20T19:32:39.056Z,9.62
2017-10-20T19:35:09.611Z,9.67
2017-10-20T19:37:37.948Z,9.50
2017-10-20T19:40:08.484Z,9.58
2017-10-20T19:42:38.979Z,9.26
2017-10-20T19:45:08.713Z,9.38
2017-10-20T19:47:37.155Z,9.43
2017-10-20T19:50:05.656Z,9.31
2017-10-20T19:52:35.067Z,9.39
2017-10-20T19:55:03.659Z,9.41
2017-10-20T19:57:33.019Z,9.28
2017-10-20T20:00:03.540Z,9.13
2017-10-20T20:02:31.968Z,9.17
2017-10-20T20:05:01.580Z,9.23
2017-10-20T20:07:33.956Z,9.23
2017-10-20T20:10:03.556Z,9.16
2017-10-20T20:12:32.310Z,9.09
2017-10-20T20:15:01.788Z,9.03
2017-10-20T20:17:30.129Z,9.02
2017-10-20T20:19:59.744Z,8.97
2017-10-20T20:22:29.019Z,9.05
2017-10-20T20:24:57.437Z,8.99
2017-10-20T20:27:25.812Z,8.91
2017-10-20T20:29:55.131Z,8.76
2017-10-20T20:32:28.004Z,8.80
2017-10-20T20:34:57.175Z,8.83
2017-10-20T20:37:25.539Z,8.90
2017-10-20T20:39:53.866Z,8.81
2017-10-20T20:42:24.421Z,8.71
2017-10-20T20:44:54.951Z,8.63
2017-10-20T20:47:24.193Z,8.61
2017-10-20T20:49:52.606Z,8.54
2017-10-20T20:52:21.099Z,8.61
2017-10-20T20:54:49.434Z,8.64
2017-10-20T20:57:17.790Z,8.52
2017-10-20T20:59:48.245Z,8.61
2017-10-20T21:02:19.747Z,8.59
2017-10-20T21:04:50.247Z,8.51
2017-10-20T21:07:19.648Z,8.49
2017-10-20T21:09:48.916Z,8.29
2017-10-20T21:12:17.233Z,8.37
2017-10-20T21:14:46.539Z,8.35
2017-10-20T21:17:15.835Z,8.42
2017-10-20T21:19:45.151Z,8.39
2017-10-20T21:22:14.432Z,8.40
2017-10-20T21:24:43.745Z,8.19
2017-10-20T21:27:13.055Z,8.10
2017-10-20T21:29:43.558Z,8.08
2017-10-20T21:32:12.903Z,7.93
2017-10-20T21:34:41.258Z,8.11
2017-10-20T21:37:10.964Z,8.18
2017-10-20T21:39:40.152Z,8.21
2017-10-20T21:42:09.470Z,8.21
2017-10-20T21:44:37.844Z,8.17
2017-10-20T21:47:07.162Z,8.19
2017-10-20T21:49:35.517Z,8.11
2017-10-20T21:52:04.840Z,7.95
2017-10-20T21:54:33.599Z,8.02
2017-10-20T21:57:03.113Z,7.94
2017-10-20T21:59:32.408Z,8.00
2017-10-20T22:02:00.807Z,8.00
2017-10-20T22:04:36.501Z,8.19
2017-10-20T22:07:05.118Z,8.28
2017-10-20T22:09:33.693Z,8.27
2017-10-20T22:12:03.260Z,8.25
2017-10-20T22:14:31.606Z,8.34
2017-10-20T22:17:00.911Z,8.21
2017-10-20T22:19:30.221Z,8.29
2017-10-20T22:21:59.508Z,8.33
2017-10-20T22:24:29.113Z,8.20
2017-10-20T22:26:57.486Z,8.19
2017-10-20T22:29:29.516Z,8.25
2017-10-20T22:31:59.805Z,8.34
2017-10-20T22:34:29.108Z,8.43
2017-10-20T22:36:57.519Z,8.52
2017-10-20T22:39:25.896Z,8.53
2017-10-20T22:41:54.247Z,8.57
2017-10-20T22:44:23.539Z,8.57
2017-10-20T22:46:54.087Z,8.57
2017-10-20T22:49:24.580Z,8.49
2017-10-20T22:51:56.369Z,8.36
2017-10-20T22:54:25.666Z,8.48
2017-10-20T22:56:54.968Z,8.50
2017-10-20T22:59:24.312Z,8.57
2017-10-20T23:01:52.637Z,8.52
2017-10-20T23:04:21.945Z,8.56
2017-10-20T23:06:51.249Z,8.65
2017-10-20T23:09:20.566Z,8.69
2017-10-20T23:11:48.984Z,8.69
2017-10-20T23:14:18.297Z,8.73
2017-10-20T23:16:47.584Z,8.77
2017-10-20T23:19:18.043Z,8.78
2017-10-20T23:21:46.444Z,8.81
2017-10-20T23:24:15.741Z,8.81
2017-10-20T23:26:45.047Z,8.74
2017-10-20T23:29:14.364Z,8.72
2017-10-20T23:31:44.917Z,8.78
2017-10-20T23:34:15.430Z,8.79
2017-10-20T23:36:45.954Z,8.76
2017-10-20T23:39:15.525Z,8.79
2017-10-20T23:41:43.908Z,8.84
2017-10-20T23:44:23.965Z,8.82
2017-10-20T23:46:53.280Z,8.86
2017-10-20T23:49:22.616Z,8.70
2017-10-20T23:51:50.953Z,8.73
2017-10-20T23:54:21.483Z,8.81
2017-10-20T23:56:49.921Z,8.89
2017-10-20T23:59:20.387Z,8.92
